Time;durP1;ratioP1;P1;durP2;ratioP2;P2;SDS_P1;SDS_P2;PMS_P1;PMS_P2;Temp;Humidity;BMP_temperature;BMP_pressure;BME280_temperature;BME280_humidity;BME280_pressure;Samples;Min_cycle;Max_cycle;Signal;HPM_P1;HPM_P2
2023/11/01 00:00:42;;;;;;;1.07;0.90;;;21.90;58.90;;;;;;5051732;28;20417;-67
2023/11/01 00:03:08;;;;;;;1.00;0.80;;;21.90;58.90;;;;;;5051935;28;20998;-67
2023/11/01 00:05:33;;;;;;;1.20;0.90;;;21.90;58.90;;;;;;5051834;28;20525;-66
2023/11/01 00:07:59;;;;;;;0.93;0.63;;;21.90;58.90;;;;;;5051883;28;20191;-66
2023/11/01 00:10:25;;;;;;;1.10;0.73;;;21.90;58.90;;;;;;5051444;28;20172;-66
2023/11/01 00:12:50;;;;;;;1.20;1.00;;;21.90;58.90;;;;;;5051532;28;20732;-67
2023/11/01 00:15:16;;;;;;;1.23;0.80;;;21.90;58.90;;;;;;5051516;28;20195;-66
2023/11/01 00:17:42;;;;;;;1.13;0.73;;;21.90;58.90;;;;;;5051557;28;20198;-66
2023/11/01 00:20:08;;;;;;;1.50;0.90;;;21.90;59.00;;;;;;5051444;28;20166;-66
2023/11/01 00:22:34;;;;;;;1.10;0.90;;;21.90;58.90;;;;;;5051563;28;20304;-66
2023/11/01 00:25:00;;;;;;;1.17;0.80;;;21.90;58.90;;;;;;5051334;28;20524;-65
2023/11/01 00:27:30;;;;;;;1.00;0.77;;;21.90;58.90;;;;;;5051267;28;20183;-67
2023/11/01 00:29:56;;;;;;;1.00;0.80;;;21.90;58.90;;;;;;5051348;28;20402;-66
2023/11/01 00:32:22;;;;;;;1.03;0.80;;;21.90;58.90;;;;;;5051525;28;20925;-67
2023/11/01 00:34:48;;;;;;;1.50;1.20;;;21.90;58.90;;;;;;5051191;28;20495;-66
2023/11/01 00:37:14;;;;;;;1.00;0.70;;;21.90;58.90;;;;;;5051159;28;20688;-66
2023/11/01 00:39:39;;;;;;;1.20;0.90;;;21.90;58.90;;;;;;5051436;28;20531;-66
2023/11/01 00:42:05;;;;;;;1.97;1.00;;;22.00;59.00;;;;;;5051151;28;20709;-66
2023/11/01 00:44:31;;;;;;;1.10;0.93;;;21.90;58.90;;;;;;5051144;28;20202;-67
2023/11/01 00:46:56;;;;;;;1.30;1.00;;;21.90;58.90;;;;;;5051148;28;20175;-66
2023/11/01 00:49:22;;;;;;;1.00;0.80;;;21.90;58.90;;;;;;5051401;28;20214;-67
2023/11/01 00:51:47;;;;;;;1.00;0.80;;;21.90;58.90;;;;;;5050840;28;20256;-66
2023/11/01 00:54:13;;;;;;;1.50;0.90;;;21.90;58.90;;;;;;5049734;28;20175;-66
2023/11/01 00:56:39;;;;;;;1.10;0.90;;;21.90;58.90;;;;;;5051066;28;20202;-66
2023/11/01 00:59:05;;;;;;;0.90;0.77;;;22.00;59.00;;;;;;5051080;28;20210;-66
2023/11/01 01:01:31;;;;;;;0.90;0.80;;;21.90;58.90;;;;;;5051356;28;20846;-67
2023/11/01 01:03:58;;;;;;;1.00;0.80;;;21.90;58.90;;;;;;5050963;28;20721;-67
2023/11/01 01:06:24;;;;;;;0.90;0.70;;;21.90;58.90;;;;;;5050741;28;20456;-66
2023/11/01 01:08:50;;;;;;;1.07;0.80;;;21.90;58.90;;;;;;5050611;28;20409;-66
2023/11/01 01:11:17;;;;;;;1.37;1.00;;;21.90;58.90;;;;;;5051036;28;20516;-66
2023/11/01 01:13:43;;;;;;;1.10;0.90;;;21.90;58.90;;;;;;5050898;28;20835;-67
2023/11/01 01:16:09;;;;;;;1.10;0.90;;;21.90;58.90;;;;;;5050763;28;20433;-66
2023/11/01 01:18:35;;;;;;;1.23;0.80;;;21.90;58.90;;;;;;5050577;28;20433;-67
2023/11/01 01:21:01;;;;;;;1.30;0.80;;;21.90;58.90;;;;;;5050528;28;20250;-66
2023/11/01 01:23:26;;;;;;;0.80;0.67;;;21.90;58.90;;;;;;5050434;28;20545;-66
2023/11/01 01:25:52;;;;;;;1.50;0.90;;;21.90;58.90;;;;;;5050711;28;20433;-67
2023/11/01 01:28:18;;;;;;;1.00;0.80;;;21.90;58.90;;;;;;5050560;28;20227;-67
2023/11/01 01:30:43;;;;;;;1.07;0.80;;;21.90;58.90;;;;;;5050775;28;20171;-66
2023/11/01 01:33:09;;;;;;;0.90;0.70;;;21.90;58.90;;;;;;5050305;28;20242;-66
2023/11/01 01:35:34;;;;;;;1.00;0.80;;;21.90;58.90;;;;;;5050596;28;20202;-66
2023/11/01 01:38:00;;;;;;;0.90;0.70;;;21.90;58.90;;;;;;5050453;28;20765;-67
2023/11/01 01:40:26;;;;;;;1.10;0.80;;;21.90;59.00;;;;;;5050495;28;20593;-66
2023/11/01 01:42:52;;;;;;;1.10;0.70;;;21.90;59.00;;;;;;5050617;28;20167;-66
2023/11/01 01:45:18;;;;;;;1.20;0.73;;;21.90;58.90;;;;;;5051012;28;20992;-67
2023/11/01 01:47:44;;;;;;;1.37;0.90;;;21.90;58.90;;;;;;5054394;28;20181;-66
2023/11/01 01:50:10;;;;;;;1.10;0.90;;;21.90;58.90;;;;;;5054027;28;20685;-66
2023/11/01 01:52:35;;;;;;;1.00;0.70;;;21.90;58.90;;;;;;5054037;28;20449;-66
2023/11/01 01:55:04;;;;;;;1.10;1.00;;;22.00;59.00;;;;;;5054181;28;20197;-67
2023/11/01 01:57:29;;;;;;;1.03;0.80;;;21.90;58.90;;;;;;5054550;28;20597;-66
2023/11/01 01:59:57;;;;;;;1.07;0.80;;;21.90;59.00;;;;;;5054275;28;20401;-67
2023/11/01 02:02:24;;;;;;;1.20;0.70;;;21.90;58.90;;;;;;5053962;28;20175;-66
2023/11/01 02:04:50;;;;;;;1.60;1.00;;;21.90;58.90;;;;;;5053770;28;20774;-66
2023/11/01 02:07:15;;;;;;;1.10;0.80;;;21.90;58.90;;;;;;5053945;28;20496;-67
2023/11/01 02:09:41;;;;;;;0.90;0.70;;;21.90;58.90;;;;;;5053846;28;20232;-66
2023/11/01 02:12:07;;;;;;;0.90;0.70;;;21.90;58.90;;;;;;5053701;28;20206;-66
2023/11/01 02:14:33;;;;;;;1.23;0.80;;;21.90;58.90;;;;;;5053826;28;20171;-66
2023/11/01 02:16:58;;;;;;;1.03;0.90;;;21.90;58.90;;;;;;5053716;28;20206;-67
2023/11/01 02:19:24;;;;;;;1.07;0.70;;;21.90;58.90;;;;;;5053603;28;20183;-65
2023/11/01 02:21:50;;;;;;;0.90;0.70;;;21.90;58.90;;;;;;5053418;28;20226;-66
2023/11/01 02:24:16;;;;;;;1.20;0.90;;;21.90;58.90;;;;;;5053564;28;20225;-66
2023/11/01 02:26:41;;;;;;;1.23;0.70;;;21.90;58.90;;;;;;5053657;28;20210;-66
2023/11/01 02:29:07;;;;;;;1.00;0.90;;;21.90;58.90;;;;;;5053577;28;20413;-67
2023/11/01 02:31:33;;;;;;;2.13;0.70;;;21.90;58.90;;;;;;5053091;28;20795;-66
2023/11/01 02:33:59;;;;;;;1.10;0.80;;;21.90;58.90;;;;;;5053428;28;20492;-66
2023/11/01 02:36:24;;;;;;;1.23;0.80;;;21.90;58.90;;;;;;5053445;28;20677;-66
2023/11/01 02:38:50;;;;;;;1.03;0.83;;;21.90;58.90;;;;;;5052122;28;20179;-66
2023/11/01 02:41:16;;;;;;;1.10;0.80;;;21.90;58.90;;;;;;5053534;28;20175;-66
2023/11/01 02:43:42;;;;;;;0.90;0.80;;;21.90;58.90;;;;;;5053005;28;20178;-66
2023/11/01 02:46:07;;;;;;;1.20;0.80;;;21.90;58.90;;;;;;5051381;28;20445;-66
2023/11/01 02:48:33;;;;;;;1.50;0.83;;;21.90;58.90;;;;;;5053212;28;20177;-66
2023/11/01 02:50:59;;;;;;;0.87;0.70;;;21.90;58.90;;;;;;5053159;28;20175;-66
2023/11/01 02:53:25;;;;;;;1.40;0.80;;;21.90;58.90;;;;;;5052630;28;20506;-66
2023/11/01 02:55:50;;;;;;;1.30;0.70;;;21.90;58.90;;;;;;5052853;28;20622;-66
2023/11/01 02:58:16;;;;;;;1.00;0.80;;;21.90;58.90;;;;;;5051710;28;20202;-66
2023/11/01 03:00:42;;;;;;;0.93;0.80;;;21.90;58.90;;;;;;5053103;28;20545;-66
2023/11/01 03:03:08;;;;;;;1.37;0.80;;;21.90;58.90;;;;;;5052942;28;20410;-67
2023/11/01 03:05:34;;;;;;;0.90;0.70;;;21.90;58.90;;;;;;5052706;28;20687;-66
2023/11/01 03:07:59;;;;;;;1.13;0.80;;;21.90;58.90;;;;;;5051265;28;20449;-66
2023/11/01 03:10:25;;;;;;;1.00;0.77;;;21.90;58.90;;;;;;5052563;28;20232;-66
2023/11/01 03:12:51;;;;;;;1.00;0.60;;;21.90;58.90;;;;;;5052637;28;20203;-66
2023/11/01 03:15:17;;;;;;;1.00;0.80;;;21.90;58.90;;;;;;5051174;28;20784;-67
2023/11/01 03:17:42;;;;;;;0.93;0.70;;;21.90;58.90;;;;;;5052565;28;20620;-67
2023/11/01 03:20:08;;;;;;;1.10;0.80;;;21.90;58.90;;;;;;5052641;28;20163;-66
2023/11/01 03:22:34;;;;;;;0.90;0.70;;;21.90;58.90;;;;;;5052392;28;20171;-66
2023/11/01 03:25:01;;;;;;;1.40;0.90;;;21.90;58.90;;;;;;5052547;28;20430;-66
2023/11/01 03:27:26;;;;;;;1.83;0.80;;;21.90;59.40;;;;;;5052420;28;20175;-66
2023/11/01 03:29:53;;;;;;;1.00;0.80;;;21.90;58.90;;;;;;5052539;28;20437;-67
2023/11/01 03:32:19;;;;;;;1.00;0.70;;;21.90;58.90;;;;;;5052240;28;20595;-66
2023/11/01 03:34:45;;;;;;;1.23;0.90;;;21.90;58.90;;;;;;5052136;28;20453;-67
2023/11/01 03:37:11;;;;;;;1.07;0.70;;;21.90;58.90;;;;;;5052085;28;20401;-66
2023/11/01 03:39:36;;;;;;;0.90;0.80;;;21.90;58.80;;;;;;5052105;28;20410;-66
2023/11/01 03:42:04;;;;;;;1.07;0.97;;;21.90;58.90;;;;;;5051973;28;20420;-65
2023/11/01 03:44:34;;;;;;;0.90;0.70;;;21.90;58.90;;;;;;5051818;28;20556;-66
2023/11/01 03:47:00;;;;;;;1.10;0.80;;;21.90;58.90;;;;;;5051813;28;20445;-66
2023/11/01 03:49:29;;;;;;;1.93;0.97;;;21.90;58.90;;;;;;5051619;28;20425;-66
2023/11/01 03:51:59;;;;;;;1.37;0.90;;;21.90;58.90;;;;;;5051979;28;20453;-67
2023/11/01 03:54:24;;;;;;;1.00;0.70;;;21.90;58.90;;;;;;5052093;28;20457;-66
2023/11/01 03:56:51;;;;;;;0.90;0.70;;;21.90;58.90;;;;;;5052076;28;20413;-67
2023/11/01 03:59:16;;;;;;;1.00;0.70;;;21.90;58.90;;;;;;5051728;28;20221;-66
2023/11/01 04:01:42;;;;;;;2.93;0.90;;;21.90;58.90;;;;;;5051447;28;20429;-66
2023/11/01 04:04:07;;;;;;;0.90;0.67;;;21.90;58.90;;;;;;5051947;28;20175;-67
2023/11/01 04:06:33;;;;;;;0.97;0.63;;;21.90;58.90;;;;;;5050631;28;20677;-66
2023/11/01 04:08:59;;;;;;;1.13;0.77;;;21.90;58.90;;;;;;5051306;28;20213;-66
2023/11/01 04:11:24;;;;;;;1.00;0.77;;;21.90;58.80;;;;;;5051831;28;20171;-67
2023/11/01 04:13:50;;;;;;;1.20;0.80;;;21.90;58.80;;;;;;5050073;28;20468;-66
2023/11/01 04:16:16;;;;;;;0.90;0.70;;;21.90;58.90;;;;;;5051169;28;20266;-66
2023/11/01 04:18:43;;;;;;;1.07;0.80;;;21.90;58.80;;;;;;5051293;28;20429;-67
2023/11/01 04:21:09;;;;;;;1.10;0.80;;;21.90;58.90;;;;;;5051012;28;20250;-65
2023/11/01 04:23:34;;;;;;;0.97;0.80;;;21.90;58.90;;;;;;5051227;28;20878;-66
2023/11/01 04:26:00;;;;;;;1.47;0.60;;;21.90;58.90;;;;;;5051138;28;20613;-66
2023/11/01 04:28:26;;;;;;;0.90;0.80;;;21.90;58.90;;;;;;5051441;28;20186;-67
2023/11/01 04:30:52;;;;;;;1.00;0.70;;;21.90;58.90;;;;;;5051027;28;20405;-66
2023/11/01 04:33:18;;;;;;;1.03;0.80;;;21.90;58.90;;;;;;5050989;28;20848;-66
2023/11/01 04:35:44;;;;;;;1.00;0.80;;;21.90;58.90;;;;;;5050971;28;20649;-66
2023/11/01 04:38:11;;;;;;;0.90;0.70;;;21.90;58.90;;;;;;5051344;28;20163;-66
2023/11/01 04:40:37;;;;;;;1.43;0.80;;;21.90;58.90;;;;;;5050896;28;20413;-66
2023/11/01 04:43:03;;;;;;;0.90;0.70;;;21.90;58.90;;;;;;5051120;28;20492;-66
2023/11/01 04:45:31;;;;;;;1.00;0.90;;;21.90;58.90;;;;;;5050943;28;20546;-66
2023/11/01 04:47:56;;;;;;;1.00;0.80;;;21.90;58.90;;;;;;5051147;28;20171;-66
2023/11/01 04:50:22;;;;;;;1.50;0.80;;;21.90;58.90;;;;;;5050901;28;20440;-67
2023/11/01 04:52:47;;;;;;;0.90;0.73;;;21.90;58.90;;;;;;5051147;28;20252;-66
2023/11/01 04:55:13;;;;;;;1.80;0.97;;;21.90;58.90;;;;;;5051337;28;20221;-67
2023/11/01 04:57:39;;;;;;;1.03;0.80;;;21.90;58.90;;;;;;5051250;28;20631;-66
2023/11/01 05:00:09;;;;;;;1.23;0.80;;;21.90;58.90;;;;;;5050892;28;20186;-66
2023/11/01 05:02:38;;;;;;;0.90;0.70;;;21.90;58.90;;;;;;5050907;28;20253;-66
2023/11/01 05:05:05;;;;;;;0.90;0.70;;;21.90;58.90;;;;;;5050894;28;20482;-67
2023/11/01 05:07:32;;;;;;;1.07;0.73;;;21.90;58.90;;;;;;5050455;28;20408;-67
2023/11/01 05:09:58;;;;;;;1.00;0.73;;;21.90;58.90;;;;;;5050968;28;20915;-66
2023/11/01 05:12:23;;;;;;;1.03;0.70;;;21.90;58.90;;;;;;5050663;28;20459;-66
2023/11/01 05:14:49;;;;;;;0.90;0.70;;;21.90;58.90;;;;;;5050681;28;20190;-66
2023/11/01 05:17:14;;;;;;;1.27;0.73;;;21.90;58.90;;;;;;5050593;28;20240;-66
2023/11/01 05:19:40;;;;;;;1.00;0.80;;;21.90;58.90;;;;;;5050668;28;20166;-67
2023/11/01 05:22:06;;;;;;;2.17;0.90;;;21.90;59.00;;;;;;5054163;28;20725;-67
2023/11/01 05:24:31;;;;;;;0.90;0.60;;;21.90;58.90;;;;;;5054894;28;20167;-66
2023/11/01 05:26:57;;;;;;;0.90;0.70;;;21.90;59.00;;;;;;5054683;28;20191;-66
2023/11/01 05:29:22;;;;;;;1.40;0.83;;;21.80;58.80;;;;;;5053605;28;20254;-66
2023/11/01 05:31:48;;;;;;;1.20;0.83;;;21.90;58.90;;;;;;5054756;28;20595;-67
2023/11/01 05:34:13;;;;;;;1.00;0.77;;;21.80;58.90;;;;;;5054878;28;20178;-67
2023/11/01 05:36:39;;;;;;;1.03;0.80;;;21.80;58.90;;;;;;5054437;28;20225;-66
2023/11/01 05:39:05;;;;;;;1.10;0.70;;;21.90;59.00;;;;;;5054361;28;20542;-66
2023/11/01 05:41:32;;;;;;;0.80;0.67;;;21.80;58.90;;;;;;5054435;28;20167;-67
2023/11/01 05:43:58;;;;;;;0.90;0.70;;;21.90;59.00;;;;;;5054539;28;20916;-66
2023/11/01 05:46:23;;;;;;;1.00;0.80;;;21.80;58.90;;;;;;5054361;28;20429;-67
2023/11/01 05:48:49;;;;;;;0.90;0.70;;;21.80;59.50;;;;;;5054610;28;20504;-67
2023/11/01 05:51:16;;;;;;;0.80;0.60;;;21.80;58.90;;;;;;5054112;28;20190;-67
2023/11/01 05:53:41;;;;;;;0.90;0.70;;;21.80;58.90;;;;;;5054493;28;20211;-66
2023/11/01 05:56:09;;;;;;;3.20;0.93;;;21.80;58.80;;;;;;5052708;28;20445;-66
2023/11/01 05:58:34;;;;;;;1.20;0.70;;;21.90;59.00;;;;;;5053995;28;20175;-66
2023/11/01 06:01:01;;;;;;;0.90;0.70;;;21.90;58.90;;;;;;5054062;28;20405;-66
2023/11/01 06:03:26;;;;;;;0.90;0.60;;;21.80;58.80;;;;;;5054000;28;20171;-65
2023/11/01 06:05:52;;;;;;;0.80;0.60;;;21.80;58.90;;;;;;5053843;28;20436;-67
2023/11/01 06:08:18;;;;;;;1.10;0.70;;;21.80;58.80;;;;;;5053827;28;20557;-66
2023/11/01 06:10:44;;;;;;;0.90;0.80;;;21.90;58.90;;;;;;5053946;28;20413;-66
2023/11/01 06:13:10;;;;;;;0.90;0.80;;;21.80;58.80;;;;;;5053725;28;20715;-66
2023/11/01 06:15:36;;;;;;;1.27;0.80;;;21.90;59.00;;;;;;5053547;28;20448;-66
2023/11/01 06:18:05;;;;;;;1.00;0.70;;;21.80;58.90;;;;;;5053729;28;20816;-66
2023/11/01 06:20:32;;;;;;;0.90;0.70;;;21.80;58.90;;;;;;5053891;28;20432;-66
2023/11/01 06:23:04;;;;;;;1.00;0.70;;;21.80;58.90;;;;;;5053618;28;20424;-67
2023/11/01 06:25:29;;;;;;;1.00;0.70;;;21.90;59.00;;;;;;5053569;28;20438;-66
2023/11/01 06:27:55;;;;;;;1.30;0.90;;;21.80;58.90;;;;;;5053627;28;20418;-67
2023/11/01 06:30:21;;;;;;;1.40;0.90;;;21.80;58.80;;;;;;5053300;28;20233;-66
2023/11/01 06:32:46;;;;;;;0.90;0.67;;;21.80;58.80;;;;;;5053292;28;20207;-66
2023/11/01 06:35:12;;;;;;;0.90;0.70;;;21.80;58.80;;;;;;5053414;28;20198;-66
2023/11/01 06:37:38;;;;;;;1.00;0.70;;;21.80;58.80;;;;;;5053771;28;20178;-65
2023/11/01 06:40:05;;;;;;;1.00;0.70;;;21.90;59.00;;;;;;5053451;28;20186;-66
2023/11/01 06:42:30;;;;;;;0.90;0.70;;;21.80;58.80;;;;;;5053367;28;20217;-66
2023/11/01 06:44:56;;;;;;;0.93;0.73;;;21.80;58.90;;;;;;5053258;28;20932;-66
2023/11/01 06:47:22;;;;;;;1.70;0.87;;;21.80;58.80;;;;;;5053239;28;20171;-66
2023/11/01 06:49:48;;;;;;;1.00;0.80;;;21.80;58.80;;;;;;5053199;28;20409;-67
2023/11/01 06:52:13;;;;;;;0.97;0.80;;;21.80;58.80;;;;;;5053099;28;20621;-67
2023/11/01 06:54:43;;;;;;;0.90;0.70;;;21.80;58.80;;;;;;5053003;28;20596;-67
2023/11/01 06:57:10;;;;;;;1.20;0.90;;;21.80;58.80;;;;;;5052849;28;20167;-67
2023/11/01 06:59:36;;;;;;;1.00;0.67;;;21.80;58.80;;;;;;5053017;28;20413;-67
2023/11/01 07:02:02;;;;;;;1.00;0.70;;;21.80;58.90;;;;;;5052941;28;20428;-66
2023/11/01 07:04:28;;;;;;;0.93;0.80;;;21.80;58.80;;;;;;5053061;28;20859;-66
2023/11/01 07:06:53;;;;;;;0.80;0.70;;;21.80;58.90;;;;;;5053272;28;20910;-67
2023/11/01 07:09:19;;;;;;;0.90;0.63;;;21.80;58.90;;;;;;5052660;28;20171;-67
2023/11/01 07:11:44;;;;;;;1.00;0.90;;;21.90;59.00;;;;;;5052806;28;20175;-66
2023/11/01 07:14:10;;;;;;;1.60;0.80;;;21.80;59.00;;;;;;5053014;28;20171;-68
2023/11/01 07:16:39;;;;;;;0.90;0.70;;;21.80;59.00;;;;;;5052939;28;20214;-67
2023/11/01 07:19:06;;;;;;;1.00;0.73;;;21.90;59.00;;;;;;5052487;28;20201;-66
2023/11/01 07:21:32;;;;;;;0.90;0.60;;;21.80;59.50;;;;;;5051797;28;21145;-67
2023/11/01 07:23:57;;;;;;;0.90;0.70;;;21.90;59.10;;;;;;5052465;28;20417;-67
2023/11/01 07:26:23;;;;;;;1.00;0.70;;;21.90;59.10;;;;;;5051457;28;20228;-66
2023/11/01 07:28:49;;;;;;;1.17;0.80;;;21.80;59.10;;;;;;5052389;28;20566;-66
2023/11/01 07:31:15;;;;;;;1.57;0.70;;;21.80;59.20;;;;;;5052453;28;20171;-66
2023/11/01 07:33:42;;;;;;;1.27;0.70;;;21.80;59.20;;;;;;5052382;28;20488;-66
2023/11/01 07:36:08;;;;;;;1.00;0.80;;;21.90;59.30;;;;;;5052281;28;20210;-66
2023/11/01 07:38:34;;;;;;;1.60;0.70;;;21.90;59.30;;;;;;5052261;28;20425;-65
2023/11/01 07:41:00;;;;;;;1.17;0.83;;;21.90;59.20;;;;;;5052435;28;20783;-67
2023/11/01 07:43:26;;;;;;;1.53;1.00;;;21.90;59.00;;;;;;5050037;28;20421;-66
2023/11/01 07:45:52;;;;;;;2.83;1.03;;;21.90;59.00;;;;;;5051910;28;20465;-66
2023/11/01 07:48:18;;;;;;;1.43;0.87;;;21.90;59.00;;;;;;5052336;28;20182;-67
2023/11/01 07:50:44;;;;;;;1.30;1.03;;;21.90;59.00;;;;;;5051968;28;20417;-66
2023/11/01 07:53:10;;;;;;;1.20;0.87;;;21.90;59.10;;;;;;5051982;28;20452;-66
2023/11/01 07:55:36;;;;;;;1.00;0.73;;;21.90;59.10;;;;;;5051794;28;20218;-66
2023/11/01 07:58:01;;;;;;;1.53;0.90;;;21.90;59.10;;;;;;5051759;28;20179;-66
2023/11/01 08:00:27;;;;;;;1.30;0.90;;;21.90;59.10;;;;;;5051803;28;20172;-66
2023/11/01 08:02:55;;;;;;;1.17;0.90;;;21.90;59.20;;;;;;5051877;28;20171;-66
2023/11/01 08:05:21;;;;;;;1.77;0.73;;;21.90;59.20;;;;;;5050109;28;20202;-66
2023/11/01 08:07:47;;;;;;;1.37;0.70;;;21.90;59.20;;;;;;5051550;28;20413;-67
2023/11/01 08:10:13;;;;;;;1.37;0.70;;;21.90;59.20;;;;;;5051709;28;20416;-66
2023/11/01 08:12:39;;;;;;;1.37;0.80;;;21.90;59.20;;;;;;5051561;28;20199;-66
2023/11/01 08:15:05;;;;;;;1.63;0.80;;;21.90;59.30;;;;;;5051260;28;20697;-66
2023/11/01 08:17:31;;;;;;;1.30;0.90;;;21.90;59.30;;;;;;5051362;28;20185;-67
2023/11/01 08:19:57;;;;;;;1.57;0.90;;;21.90;59.40;;;;;;5052062;28;20398;-66
2023/11/01 08:22:23;;;;;;;1.00;0.80;;;21.90;59.30;;;;;;5051585;28;20428;-66
2023/11/01 08:24:48;;;;;;;1.00;0.77;;;21.90;59.30;;;;;;5051131;28;20621;-67
2023/11/01 08:27:14;;;;;;;0.90;0.80;;;21.90;59.40;;;;;;5051396;28;20405;-66
2023/11/01 08:29:42;;;;;;;1.20;0.83;;;21.90;59.30;;;;;;5051480;28;20171;-67
2023/11/01 08:32:11;;;;;;;1.10;0.83;;;21.90;59.40;;;;;;5050909;28;20264;-66
2023/11/01 08:34:37;;;;;;;1.07;0.80;;;21.90;59.40;;;;;;5051251;28;20410;-67
2023/11/01 08:37:04;;;;;;;1.43;0.90;;;21.90;59.30;;;;;;5051347;28;20413;-67
2023/11/01 08:39:30;;;;;;;1.00;0.80;;;21.90;59.40;;;;;;5051455;28;20216;-66
2023/11/01 08:41:56;;;;;;;1.20;0.80;;;21.90;59.40;;;;;;5051070;28;20401;-66
2023/11/01 08:44:21;;;;;;;1.20;0.90;;;21.90;59.40;;;;;;5051074;28;20409;-66
2023/11/01 08:46:47;;;;;;;1.50;1.00;;;21.90;59.40;;;;;;5051415;28;20428;-65
2023/11/01 08:49:13;;;;;;;1.30;1.00;;;21.90;59.40;;;;;;5051432;28;20178;-66
2023/11/01 08:51:39;;;;;;;1.77;0.80;;;21.90;59.40;;;;;;5051464;28;20167;-66
2023/11/01 08:54:10;;;;;;;1.13;0.80;;;21.90;59.40;;;;;;5050959;28;20504;-66
2023/11/01 08:56:36;;;;;;;1.40;0.87;;;21.90;59.40;;;;;;5051169;28;20437;-66
2023/11/01 08:59:05;;;;;;;1.07;0.80;;;21.90;59.40;;;;;;5051423;28;20413;-66
2023/11/01 09:01:32;;;;;;;1.20;0.87;;;21.90;59.40;;;;;;5050984;28;20175;-67
2023/11/01 09:03:58;;;;;;;1.40;0.80;;;21.90;59.40;;;;;;5050982;28;20409;-66
2023/11/01 09:06:24;;;;;;;1.10;0.93;;;21.90;59.40;;;;;;5050621;28;20437;-65
2023/11/01 09:08:50;;;;;;;1.27;1.00;;;21.90;59.40;;;;;;5051355;28;20462;-66
2023/11/01 09:11:15;;;;;;;1.93;1.10;;;21.90;59.30;;;;;;5051068;28;20524;-66
2023/11/01 09:13:43;;;;;;;1.93;0.80;;;21.90;59.40;;;;;;5051177;28;20218;-66
2023/11/01 09:16:09;;;;;;;1.53;0.80;;;21.90;59.30;;;;;;5049308;28;20278;-66
2023/11/01 09:18:34;;;;;;;1.30;0.90;;;21.90;59.40;;;;;;5050469;28;21020;-66
2023/11/01 09:21:00;;;;;;;1.30;0.70;;;21.90;59.30;;;;;;5050869;28;20209;-67
2023/11/01 09:23:27;;;;;;;1.33;0.83;;;21.90;59.40;;;;;;5050822;28;20570;-67
2023/11/01 09:25:53;;;;;;;1.73;0.83;;;22.00;59.40;;;;;;5050961;28;20859;-66
2023/11/01 09:28:18;;;;;;;1.50;0.80;;;21.90;59.40;;;;;;5050797;28;20491;-66
2023/11/01 09:30:44;;;;;;;3.00;0.70;;;22.00;59.40;;;;;;5050944;28;20462;-66
2023/11/01 09:33:10;;;;;;;1.67;0.80;;;21.90;59.30;;;;;;5050823;28;20203;-66
2023/11/01 09:35:36;;;;;;;2.03;0.83;;;21.90;59.30;;;;;;5051006;28;20222;-66
2023/11/01 09:38:01;;;;;;;1.10;0.70;;;21.90;59.30;;;;;;5050802;28;20254;-67
2023/11/01 09:40:27;;;;;;;2.67;1.30;;;21.90;59.40;;;;;;5050698;28;20555;-66
2023/11/01 09:42:53;;;;;;;1.00;0.80;;;22.00;59.40;;;;;;5048981;28;20190;-66
2023/11/01 09:45:20;;;;;;;1.20;0.90;;;22.00;59.40;;;;;;5050692;28;20625;-66
2023/11/01 09:47:47;;;;;;;1.30;0.80;;;22.00;59.50;;;;;;5051116;28;20757;-66
2023/11/01 09:50:13;;;;;;;1.00;0.80;;;22.00;59.50;;;;;;5049494;28;20440;-66
2023/11/01 09:52:39;;;;;;;1.50;1.10;;;22.00;59.50;;;;;;5050987;28;20457;-66
2023/11/01 09:55:06;;;;;;;1.60;0.90;;;22.00;59.50;;;;;;5050762;28;20437;-66
2023/11/01 09:57:36;;;;;;;1.83;0.80;;;22.00;59.50;;;;;;5051189;28;20942;-66
2023/11/01 10:00:03;;;;;;;1.23;0.80;;;22.00;59.40;;;;;;5051078;28;20386;-66
2023/11/01 10:02:29;;;;;;;1.07;0.87;;;22.00;59.40;;;;;;5050736;28;20525;-66
2023/11/01 10:04:56;;;;;;;1.23;0.83;;;22.00;59.40;;;;;;5051051;28;21019;-66
2023/11/01 10:07:21;;;;;;;1.63;0.80;;;22.00;59.40;;;;;;5053013;28;20257;-66
2023/11/01 10:09:49;;;;;;;0.97;0.80;;;22.00;59.30;;;;;;5054245;28;20501;-66
2023/11/01 10:12:16;;;;;;;1.20;0.80;;;22.00;59.40;;;;;;5054107;28;20285;-66
2023/11/01 10:14:42;;;;;;;1.57;1.10;;;22.00;59.30;;;;;;5054368;28;20413;-66
2023/11/01 10:17:08;;;;;;;1.70;0.87;;;22.00;59.30;;;;;;5054129;28;21411;-67
2023/11/01 10:19:34;;;;;;;1.47;0.90;;;22.00;59.30;;;;;;5054145;28;20544;-66
2023/11/01 10:22:00;;;;;;;1.30;0.83;;;22.00;59.30;;;;;;5053862;28;20226;-66
2023/11/01 10:24:27;;;;;;;1.00;0.70;;;22.00;59.30;;;;;;5053454;28;20163;-66
2023/11/01 10:26:54;;;;;;;1.30;0.70;;;22.00;59.30;;;;;;5053698;28;20410;-66
2023/11/01 10:29:26;;;;;;;1.03;0.80;;;22.00;59.30;;;;;;5053896;28;20527;-66
2023/11/01 10:31:59;;;;;;;0.93;0.83;;;22.00;59.40;;;;;;5053478;28;20417;-66
2023/11/01 10:34:29;;;;;;;1.53;1.10;;;22.00;59.40;;;;;;5052116;28;20430;-66
2023/11/01 10:36:57;;;;;;;1.27;0.87;;;22.00;59.40;;;;;;5053622;28;20413;-66
2023/11/01 10:39:23;;;;;;;1.20;0.87;;;22.00;59.40;;;;;;5053866;28;20417;-66
2023/11/01 10:41:50;;;;;;;1.40;1.10;;;22.00;59.40;;;;;;5053500;28;20520;-66
2023/11/01 10:44:17;;;;;;;1.00;0.80;;;22.00;59.40;;;;;;5053530;28;20406;-66
2023/11/01 10:46:43;;;;;;;1.07;0.80;;;22.00;59.40;;;;;;5051910;28;20433;-66
2023/11/01 10:49:12;;;;;;;1.43;0.90;;;22.00;59.40;;;;;;5053414;28;20928;-66
2023/11/01 10:51:39;;;;;;;1.20;0.70;;;22.00;59.40;;;;;;5053541;28;20183;-67
2023/11/01 10:54:05;;;;;;;2.17;0.80;;;22.00;59.40;;;;;;5053456;28;20469;-67
2023/11/01 10:56:30;;;;;;;1.00;0.73;;;22.00;59.30;;;;;;5053500;28;20429;-66
2023/11/01 10:59:24;;;;;;;2.13;0.87;;;22.00;59.40;;;;;;5053498;28;20946;-66
2023/11/01 11:01:59;;;;;;;0.90;0.70;;;22.00;59.30;;;;;;5053242;28;20219;-66
2023/11/01 11:04:32;;;;;;;1.27;0.97;;;22.00;59.40;;;;;;5051822;28;20458;-66
2023/11/01 11:07:06;;;;;;;1.67;0.70;;;22.00;59.40;;;;;;5052865;28;20535;-67
2023/11/01 11:09:32;;;;;;;2.07;1.00;;;22.00;59.50;;;;;;5053068;28;20417;-66
2023/11/01 11:12:24;;;;;;;1.37;1.20;;;22.00;59.40;;;;;;5052604;28;20410;-66
2023/11/01 11:14:53;;;;;;;0.80;0.60;;;22.00;59.50;;;;;;5052875;28;20244;-66
2023/11/01 11:17:20;;;;;;;1.10;0.87;;;22.00;59.50;;;;;;5052783;28;20409;-66
2023/11/01 11:20:04;;;;;;;1.80;0.87;;;22.00;59.60;;;;;;5052126;28;20401;-66
2023/11/01 11:22:58;;;;;;;2.23;1.10;;;22.00;59.60;;;;;;5052814;28;20420;-66
2023/11/01 11:25:39;;;;;;;1.37;0.83;;;22.00;59.50;;;;;;5052337;28;20812;-66
2023/11/01 11:28:05;;;;;;;1.63;0.70;;;22.00;59.60;;;;;;5052620;28;20920;-66
2023/11/01 11:31:07;;;;;;;3.33;1.00;;;22.00;59.60;;;;;;5052261;28;20421;-66
2023/11/01 11:33:45;;;;;;;1.50;0.70;;;22.00;59.60;;;;;;5052030;28;20963;-66
2023/11/01 11:36:15;;;;;;;1.53;0.70;;;22.00;59.70;;;;;;5052474;28;20425;-66
2023/11/01 11:38:51;;;;;;;1.43;0.90;;;22.00;59.70;;;;;;5052909;28;20475;-66
2023/11/01 11:41:18;;;;;;;1.30;0.90;;;22.00;59.60;;;;;;5052980;28;20908;-66
2023/11/01 11:44:06;;;;;;;2.80;0.80;;;22.00;59.60;;;;;;5052823;28;20418;-66
2023/11/01 11:46:40;;;;;;;2.93;0.90;;;22.00;59.60;;;;;;5053082;28;20840;-66
2023/11/01 11:49:27;;;;;;;3.43;0.90;;;22.00;59.60;;;;;;5052883;28;20456;-67
2023/11/01 11:51:57;;;;;;;1.53;0.90;;;22.00;59.60;;;;;;5051036;28;20425;-66
2023/11/01 11:54:24;;;;;;;1.27;0.87;;;22.00;59.70;;;;;;5052785;28;20405;-66
2023/11/01 11:56:54;;;;;;;1.50;0.80;;;22.00;59.80;;;;;;5051302;28;20410;-66
2023/11/01 11:59:22;;;;;;;3.47;0.97;;;22.00;59.80;;;;;;5051979;28;20409;-66
2023/11/01 12:01:51;;;;;;;6.43;1.07;;;22.00;59.90;;;;;;5051717;28;20410;-66
2023/11/01 12:04:17;;;;;;;4.90;1.33;;;22.00;59.90;;;;;;5051972;28;20441;-66
2023/11/01 12:06:47;;;;;;;7.80;1.60;;;22.00;59.90;;;;;;5051687;28;20550;-66
2023/11/01 12:09:19;;;;;;;3.93;1.30;;;22.00;59.60;;;;;;5051731;28;20390;-66
2023/11/01 12:11:49;;;;;;;7.43;1.40;;;22.00;59.50;;;;;;5052213;28;20425;-66
2023/11/01 12:14:24;;;;;;;2.07;1.20;;;22.00;59.40;;;;;;5051545;28;20439;-66
2023/11/01 12:16:53;;;;;;;1.50;0.77;;;22.00;59.50;;;;;;5051653;28;20381;-66
2023/11/01 12:19:21;;;;;;;3.50;1.00;;;22.10;59.50;;;;;;5051729;28;20490;-66
2023/11/01 12:21:53;;;;;;;2.20;0.97;;;22.00;59.40;;;;;;5051699;28;20526;-66
2023/11/01 12:24:23;;;;;;;3.03;1.33;;;22.00;59.40;;;;;;5051732;28;20401;-66
2023/11/01 12:26:59;;;;;;;1.90;1.10;;;22.00;59.30;;;;;;5051603;28;20967;-66
2023/11/01 12:29:31;;;;;;;1.80;1.10;;;22.00;59.20;;;;;;5049849;28;20497;-66
2023/11/01 12:32:00;;;;;;;4.20;1.20;;;22.10;59.30;;;;;;5051394;28;20409;-66
2023/11/01 12:34:26;;;;;;;2.00;1.10;;;22.00;59.20;;;;;;5051286;28;20406;-66
2023/11/01 12:37:04;;;;;;;2.97;1.10;;;22.00;59.30;;;;;;5051681;28;20433;-66
2023/11/01 12:39:30;;;;;;;4.10;1.60;;;22.00;59.20;;;;;;5051847;28;20162;-66
2023/11/01 12:41:55;;;;;;;3.83;1.40;;;22.00;59.20;;;;;;5051413;28;20397;-66
2023/11/01 12:44:24;;;;;;;2.20;1.00;;;22.10;59.40;;;;;;5051694;28;20512;-66
2023/11/01 12:46:50;;;;;;;2.87;1.03;;;22.00;59.30;;;;;;5051039;28;20238;-67